Time;durP1;ratioP1;P1;durP2;ratioP2;P2;SDS_P1;SDS_P2;PMS_P1;PMS_P2;Temp;Humidity;BMP_temperature;BMP_pressure;BME280_temperature;BME280_humidity;BME280_pressure;Samples;Min_cycle;Max_cycle;Signal;HPM_P1;HPM_P2
2022/05/14 00:00:32;;;;;;;16.52;8.88;;;19.10;99.90;;;;;;5021902;28;20059;-87
2022/05/14 00:02:58;;;;;;;16.33;9.82;;;19.10;99.90;;;;;;5020893;28;20032;-86
2022/05/14 00:05:25;;;;;;;15.25;9.25;;;19.00;99.90;;;;;;5040710;28;20013;-86
2022/05/14 00:07:51;;;;;;;16.75;10.35;;;19.10;99.90;;;;;;5022111;28;20095;-87
2022/05/14 00:10:21;;;;;;;15.25;9.63;;;19.10;99.90;;;;;;5026018;28;20087;-87
2022/05/14 00:13:05;;;;;;;17.98;9.38;;;19.20;99.90;;;;;;5040125;28;20052;-86
2022/05/14 00:15:42;;;;;;;12.77;9.05;;;19.20;99.90;;;;;;5041312;28;20029;-87
2022/05/14 00:18:11;;;;;;;18.17;9.45;;;19.20;99.90;;;;;;5037585;28;20025;-87
2022/05/14 00:20:40;;;;;;;17.95;8.73;;;19.20;99.90;;;;;;5018926;28;20036;-87
2022/05/14 00:23:09;;;;;;;18.48;10.55;;;19.30;99.90;;;;;;5037977;28;20056;-87
2022/05/14 00:25:36;;;;;;;24.70;10.63;;;19.40;99.90;;;;;;5041670;28;20044;-89
2022/05/14 00:28:02;;;;;;;21.52;11.18;;;19.40;99.90;;;;;;5037821;28;20025;-88
2022/05/14 00:30:31;;;;;;;17.00;11.40;;;19.30;99.90;;;;;;5042283;28;20051;-88
2022/05/14 00:32:57;;;;;;;20.73;11.73;;;19.30;99.90;;;;;;5040538;28;20060;-88
2022/05/14 00:35:23;;;;;;;15.00;10.90;;;19.10;99.90;;;;;;5042771;28;20510;-86
2022/05/14 00:38:21;;;;;;;22.05;10.27;;;19.10;99.90;;;;;;5039472;28;20033;-86
2022/05/14 00:41:08;;;;;;;20.60;9.80;;;19.20;99.90;;;;;;5022834;28;20033;-86
2022/05/14 00:43:51;;;;;;;17.38;9.02;;;19.30;99.90;;;;;;5027947;28;20548;-86
2022/05/14 00:46:19;;;;;;;12.30;8.98;;;19.30;99.90;;;;;;5037492;28;20531;-86
2022/05/14 00:48:57;;;;;;;18.38;10.27;;;19.30;99.90;;;;;;5024240;28;20049;-86
2022/05/14 00:51:28;;;;;;;17.15;10.60;;;19.30;99.90;;;;;;5023135;28;20488;-86
2022/05/14 00:54:01;;;;;;;18.10;11.15;;;19.30;99.90;;;;;;5041516;28;20033;-87
2022/05/14 00:56:34;;;;;;;17.60;10.82;;;19.40;99.90;;;;;;5044615;28;20021;-86
2022/05/14 00:59:20;;;;;;;15.52;10.30;;;19.40;99.90;;;;;;5040694;28;20704;-86
2022/05/14 01:02:17;;;;;;;22.25;10.95;;;19.30;99.90;;;;;;5021663;28;20032;-87
2022/05/14 01:04:44;;;;;;;16.77;10.38;;;19.10;99.90;;;;;;5047289;28;20177;-88
2022/05/14 01:07:14;;;;;;;15.57;10.98;;;19.00;99.90;;;;;;5044258;28;20024;-86
2022/05/14 01:09:43;;;;;;;19.58;11.40;;;19.10;99.90;;;;;;5029641;28;20029;-86
2022/05/14 01:12:10;;;;;;;17.80;10.98;;;19.10;99.90;;;;;;5041773;28;20497;-87
2022/05/14 01:14:36;;;;;;;15.35;10.35;;;19.20;99.90;;;;;;5038189;28;20072;-85
2022/05/14 01:17:02;;;;;;;15.30;10.05;;;19.20;99.90;;;;;;5042196;28;20053;-85
2022/05/14 01:19:28;;;;;;;16.48;10.35;;;19.20;99.90;;;;;;5023099;28;20029;-86
2022/05/14 01:22:28;;;;;;;14.02;10.90;;;19.30;99.90;;;;;;5026128;28;20040;-86
2022/05/14 01:27:42;;;;;;;21.13;13.25;;;19.20;99.90;;;;;;5038128;28;20036;-87
2022/05/14 01:30:08;;;;;;;15.65;12.95;;;19.30;99.90;;;;;;5040956;28;20488;-86
2022/05/14 01:32:34;;;;;;;18.15;12.75;;;19.20;99.90;;;;;;5044048;28;20407;-87
2022/05/14 01:35:00;;;;;;;16.92;11.70;;;19.20;99.90;;;;;;5045976;28;20752;-87
2022/05/14 01:37:35;;;;;;;17.60;11.30;;;19.20;99.90;;;;;;5022232;28;20032;-88
2022/05/14 01:40:01;;;;;;;16.35;11.30;;;19.10;99.90;;;;;;5042878;28;20491;-87
2022/05/14 01:42:27;;;;;;;19.15;10.80;;;19.10;99.90;;;;;;5042564;28;20032;-87
2022/05/14 01:44:53;;;;;;;14.02;10.88;;;19.00;99.90;;;;;;5037082;28;20030;-87
2022/05/14 01:47:19;;;;;;;18.88;11.73;;;19.00;99.90;;;;;;5043044;28;20039;-87
2022/05/14 01:49:47;;;;;;;17.60;10.73;;;18.90;99.90;;;;;;5046615;28;20029;-87
2022/05/14 01:52:13;;;;;;;22.10;12.18;;;18.80;99.90;;;;;;5042536;28;20057;-87
2022/05/14 01:54:39;;;;;;;12.27;10.73;;;18.70;99.90;;;;;;5039907;28;20080;-87
2022/05/14 01:57:06;;;;;;;18.67;11.07;;;18.60;99.90;;;;;;5041927;28;20047;-87
2022/05/14 01:59:41;;;;;;;18.02;11.95;;;18.50;99.90;;;;;;5045539;28;20021;-86
2022/05/14 02:02:27;;;;;;;24.45;11.70;;;18.50;99.90;;;;;;5043086;28;20025;-85
2022/05/14 02:04:53;;;;;;;17.75;11.07;;;18.40;99.90;;;;;;5018853;28;20515;-86
2022/05/14 02:07:22;;;;;;;16.85;11.23;;;18.40;99.90;;;;;;5024636;28;20037;-86
2022/05/14 02:10:02;;;;;;;20.00;10.98;;;18.30;99.90;;;;;;5040465;28;20017;-86
2022/05/14 02:12:34;;;;;;;14.38;10.93;;;18.40;99.90;;;;;;5043348;28;20133;-85
2022/05/14 02:15:36;;;;;;;15.80;11.32;;;18.40;99.90;;;;;;5021295;28;20048;-86
2022/05/14 02:18:05;;;;;;;17.98;10.63;;;18.60;99.90;;;;;;5038920;28;20045;-87
2022/05/14 02:20:40;;;;;;;15.80;9.50;;;18.70;99.90;;;;;;5019743;28;20035;-87
2022/05/14 02:23:07;;;;;;;17.15;9.45;;;18.60;99.90;;;;;;5024970;28;20068;-88
2022/05/14 02:25:32;;;;;;;14.98;8.85;;;18.60;99.90;;;;;;5041308;28;20538;-87
2022/05/14 02:27:58;;;;;;;10.25;8.13;;;18.50;99.90;;;;;;5042296;28;20112;-87
2022/05/14 02:30:24;;;;;;;15.85;8.52;;;18.40;99.90;;;;;;5025627;28;20108;-88
2022/05/14 02:32:50;;;;;;;15.57;9.48;;;18.40;99.90;;;;;;5040532;28;20084;-89
2022/05/14 02:35:26;;;;;;;12.00;9.35;;;18.40;99.90;;;;;;5045645;28;20032;-87
2022/05/14 02:37:55;;;;;;;13.48;9.88;;;18.30;99.90;;;;;;5025878;28;20032;-87
2022/05/14 02:40:21;;;;;;;13.23;10.20;;;18.30;99.90;;;;;;5034622;28;20060;-87
2022/05/14 02:42:47;;;;;;;12.88;10.00;;;18.30;99.90;;;;;;5038958;28;21107;-87
2022/05/14 02:45:14;;;;;;;17.00;10.95;;;18.30;99.90;;;;;;5039166;28;20032;-88
2022/05/14 02:47:40;;;;;;;16.40;10.07;;;18.30;99.90;;;;;;5040031;28;20060;-88
2022/05/14 02:50:08;;;;;;;14.25;9.63;;;18.30;99.90;;;;;;5016455;28;20053;-88
2022/05/14 02:52:34;;;;;;;13.75;9.40;;;18.20;99.90;;;;;;5032265;28;20105;-88
2022/05/14 02:55:00;;;;;;;16.08;10.85;;;18.30;99.90;;;;;;5045947;28;20103;-87
2022/05/14 02:57:31;;;;;;;16.88;11.52;;;18.30;99.90;;;;;;5042665;28;20492;-87
2022/05/14 02:59:57;;;;;;;18.63;12.48;;;18.50;99.90;;;;;;5044449;28;20065;-87
2022/05/14 03:02:23;;;;;;;19.08;11.82;;;18.50;99.90;;;;;;5039940;28;20064;-87
2022/05/14 03:04:49;;;;;;;12.52;9.30;;;18.40;99.90;;;;;;5021371;28;20468;-87
2022/05/14 03:07:17;;;;;;;14.57;10.32;;;18.50;99.90;;;;;;5022007;28;20096;-88
2022/05/14 03:09:47;;;;;;;9.88;8.55;;;18.50;99.90;;;;;;5038184;28;20024;-87
2022/05/14 03:12:15;;;;;;;10.93;8.18;;;18.40;99.90;;;;;;5040260;28;20033;-87
2022/05/14 03:14:41;;;;;;;10.73;7.28;;;18.40;99.90;;;;;;5038479;28;20029;-87
2022/05/14 03:17:07;;;;;;;17.48;8.43;;;18.30;99.90;;;;;;5040739;28;20067;-87
2022/05/14 03:19:46;;;;;;;15.40;6.80;;;18.40;99.90;;;;;;5018408;28;20081;-87
2022/05/14 03:22:42;;;;;;;8.30;7.15;;;18.40;99.90;;;;;;5021446;28;20040;-87
2022/05/14 03:25:08;;;;;;;11.45;7.22;;;18.30;99.90;;;;;;5018378;28;20025;-87
2022/05/14 03:27:34;;;;;;;10.82;7.65;;;18.40;99.90;;;;;;5027300;28;20033;-88
2022/05/14 03:30:00;;;;;;;11.13;7.97;;;18.30;99.90;;;;;;5028198;28;20525;-86
2022/05/14 03:32:29;;;;;;;9.55;8.07;;;18.30;99.90;;;;;;5040154;28;20459;-87
2022/05/14 03:34:55;;;;;;;11.75;7.47;;;18.20;99.90;;;;;;5026779;28;20045;-87
2022/05/14 03:37:23;;;;;;;13.65;8.23;;;18.20;99.90;;;;;;5021721;28;20033;-87
2022/05/14 03:39:49;;;;;;;16.00;8.60;;;18.20;99.90;;;;;;5035458;28;20025;-87
2022/05/14 03:42:14;;;;;;;13.40;7.88;;;18.20;99.90;;;;;;5022592;28;20079;-87
2022/05/14 03:44:40;;;;;;;21.85;14.82;;;18.20;99.90;;;;;;5044629;28;20111;-87
2022/05/14 03:47:09;;;;;;;11.23;8.90;;;18.30;99.90;;;;;;5039110;28;20021;-86
2022/05/14 03:49:35;;;;;;;21.70;11.18;;;18.40;99.90;;;;;;5025855;28;20404;-87
2022/05/14 03:52:01;;;;;;;17.00;11.45;;;18.50;99.90;;;;;;5020609;28;20111;-88
2022/05/14 03:54:28;;;;;;;16.88;11.10;;;18.50;99.90;;;;;;5036455;28;20040;-87
2022/05/14 03:56:54;;;;;;;24.70;10.00;;;18.50;99.90;;;;;;5040859;28;20149;-87
2022/05/14 03:59:19;;;;;;;22.60;10.05;;;18.60;99.90;;;;;;5042370;28;20052;-87
2022/05/14 04:01:45;;;;;;;16.20;10.68;;;18.60;99.90;;;;;;5038643;28;20036;-86
2022/05/14 04:04:12;;;;;;;16.40;9.88;;;18.70;99.90;;;;;;5036800;28;20036;-87
2022/05/14 04:06:38;;;;;;;15.40;9.60;;;18.70;99.90;;;;;;5023217;28;20032;-86
2022/05/14 04:09:04;;;;;;;11.40;9.70;;;18.70;99.90;;;;;;5019333;28;20048;-86
2022/05/14 04:11:29;;;;;;;10.25;7.75;;;18.70;99.90;;;;;;5024603;28;20056;-90
2022/05/14 04:13:56;;;;;;;15.07;8.52;;;18.70;99.90;;;;;;5018715;28;20278;-89
2022/05/14 04:16:25;;;;;;;9.45;6.57;;;18.80;99.90;;;;;;5039680;28;20071;-87
2022/05/14 04:18:51;;;;;;;9.63;6.65;;;18.80;99.90;;;;;;5042439;28;20033;-88
2022/05/14 04:21:23;;;;;;;8.68;6.50;;;18.90;99.90;;;;;;5038822;28;20029;-86
2022/05/14 04:23:48;;;;;;;8.88;5.95;;;19.00;99.90;;;;;;5042406;28;20501;-88
2022/05/14 04:26:14;;;;;;;9.15;5.72;;;19.10;99.90;;;;;;5018445;28;20042;-85
2022/05/14 04:28:59;;;;;;;8.15;6.20;;;19.10;99.90;;;;;;5037723;28;20029;-88
2022/05/14 04:31:25;;;;;;;8.70;6.07;;;19.10;99.90;;;;;;5038847;28;20100;-88
2022/05/14 04:33:51;;;;;;;12.02;6.45;;;19.30;99.90;;;;;;5024209;28;20127;-87
2022/05/14 04:36:16;;;;;;;9.55;6.55;;;19.30;99.90;;;;;;5040332;28;20055;-88
2022/05/14 04:38:42;;;;;;;12.15;6.60;;;19.40;99.90;;;;;;5037449;28;20087;-89
2022/05/14 04:41:08;;;;;;;6.82;5.82;;;19.40;99.90;;;;;;5021175;28;20487;-89
2022/05/14 04:43:34;;;;;;;9.02;6.15;;;19.50;99.90;;;;;;5019173;28;20041;-89
2022/05/14 04:46:00;;;;;;;9.55;5.35;;;19.50;99.90;;;;;;5038917;28;20056;-89
2022/05/14 04:48:26;;;;;;;6.57;5.30;;;19.60;99.90;;;;;;5017998;28;20157;-88
2022/05/14 04:50:54;;;;;;;9.25;5.63;;;19.70;99.90;;;;;;5040690;28;20463;-88
2022/05/14 04:53:20;;;;;;;8.10;5.45;;;19.70;99.90;;;;;;5040419;28;20445;-88
2022/05/14 04:55:48;;;;;;;13.18;4.70;;;19.80;99.90;;;;;;5042476;28;20030;-89
2022/05/14 04:58:14;;;;;;;10.20;5.32;;;19.80;99.90;;;;;;5021276;28;20176;-89
2022/05/14 05:00:41;;;;;;;6.82;4.47;;;19.90;99.90;;;;;;5036472;28;20517;-91
2022/05/14 05:03:19;;;;;;;9.35;4.05;;;19.90;99.90;;;;;;5036193;28;20021;-94
2022/05/14 05:05:56;;;;;;;7.22;3.83;;;20.00;99.90;;;;;;5018085;28;20119;-89
2022/05/14 05:08:23;;;;;;;8.10;3.60;;;20.20;99.90;;;;;;5038843;28;20051;-89
2022/05/14 05:10:50;;;;;;;7.95;3.50;;;20.30;99.90;;;;;;5021291;28;20032;-88
2022/05/14 05:13:20;;;;;;;10.82;3.53;;;20.40;99.90;;;;;;5039872;28;20037;-90
2022/05/14 05:15:46;;;;;;;10.75;3.63;;;20.50;99.90;;;;;;5023643;28;20037;-90
2022/05/14 05:18:12;;;;;;;4.40;3.33;;;20.60;99.90;;;;;;5021427;28;20148;-90
2022/05/14 05:20:40;;;;;;;7.03;3.40;;;20.70;99.90;;;;;;5023100;28;20049;-90
2022/05/14 05:23:07;;;;;;;5.28;3.53;;;20.90;99.90;;;;;;5038019;28;20472;-90
2022/05/14 05:25:35;;;;;;;4.75;3.20;;;20.90;99.90;;;;;;5042780;28;20033;-92
2022/05/14 05:28:01;;;;;;;5.88;3.40;;;21.00;99.90;;;;;;5040999;28;20028;-87
2022/05/14 05:30:26;;;;;;;4.03;2.97;;;21.00;99.90;;;;;;5040926;28;20429;-89
2022/05/14 05:32:52;;;;;;;4.80;3.13;;;21.10;99.90;;;;;;5018810;28;20028;-89
2022/05/14 05:35:20;;;;;;;7.10;3.50;;;21.20;99.90;;;;;;5019210;28;20033;-86
2022/05/14 05:37:46;;;;;;;7.80;3.10;;;21.20;99.90;;;;;;5038679;28;20018;-89
2022/05/14 05:40:12;;;;;;;6.70;3.45;;;21.30;99.90;;;;;;5046373;28;20041;-89
2022/05/14 05:42:38;;;;;;;3.45;2.92;;;21.40;99.90;;;;;;5024375;28;20026;-89
2022/05/14 05:45:04;;;;;;;6.05;3.00;;;21.50;99.90;;;;;;5022119;28;20063;-89
2022/05/14 05:47:30;;;;;;;7.03;2.97;;;21.60;99.90;;;;;;5043403;28;20036;-89
2022/05/14 05:49:55;;;;;;;4.28;2.75;;;21.80;99.90;;;;;;5037031;28;20107;-88
2022/05/14 05:52:21;;;;;;;4.53;2.67;;;21.90;99.90;;;;;;5025747;28;20030;-87
2022/05/14 05:57:37;;;;;;;3.92;3.03;;;22.30;99.90;;;;;;5039255;28;20051;-88
2022/05/14 06:00:18;;;;;;;4.00;2.63;;;22.40;99.90;;;;;;5044928;28;20024;-89
2022/05/14 06:02:46;;;;;;;6.70;2.47;;;22.60;99.90;;;;;;5035788;28;20092;-89
2022/05/14 06:05:12;;;;;;;3.65;2.42;;;22.60;99.90;;;;;;5041608;28;20084;-88
2022/05/14 06:07:39;;;;;;;6.65;3.05;;;22.70;99.90;;;;;;5036505;28;20037;-93
2022/05/14 06:10:08;;;;;;;4.55;2.78;;;22.70;99.90;;;;;;5044161;28;20032;-90
2022/05/14 06:12:36;;;;;;;3.83;2.30;;;22.70;99.90;;;;;;5014547;28;20033;-92
2022/05/14 06:15:02;;;;;;;6.20;2.60;;;22.70;99.90;;;;;;5025025;28;20041;-88
2022/05/14 06:17:28;;;;;;;7.60;2.80;;;22.80;99.90;;;;;;5040534;28;20044;-89
2022/05/14 06:19:55;;;;;;;2.60;2.40;;;22.70;99.90;;;;;;5042033;28;20033;-89
2022/05/14 06:22:20;;;;;;;2.20;2.08;;;22.70;99.90;;;;;;5040107;28;20342;-93
2022/05/14 06:24:46;;;;;;;5.43;2.47;;;22.70;99.90;;;;;;5042109;28;20462;-88
2022/05/14 06:27:12;;;;;;;2.63;2.08;;;22.60;99.90;;;;;;5023555;28;20025;-90
2022/05/14 06:29:37;;;;;;;2.95;2.30;;;22.60;99.90;;;;;;5036083;28;20036;-90
2022/05/14 06:32:04;;;;;;;2.40;2.15;;;22.70;99.90;;;;;;5036904;28;20029;-87
2022/05/14 06:34:30;;;;;;;7.72;2.55;;;22.80;99.90;;;;;;5017796;28;20496;-88
2022/05/14 06:36:55;;;;;;;4.72;2.20;;;23.00;99.90;;;;;;5038938;28;20036;-87
2022/05/14 06:39:21;;;;;;;5.80;2.17;;;23.20;99.90;;;;;;5035812;28;20037;-87
2022/05/14 06:41:50;;;;;;;3.97;2.38;;;23.40;99.90;;;;;;5023270;28;20036;-87
2022/05/14 06:44:16;;;;;;;2.45;2.00;;;23.60;99.90;;;;;;5017273;28;20083;-88
2022/05/14 06:46:41;;;;;;;3.90;2.15;;;23.80;99.90;;;;;;5017854;28;20056;-89
2022/05/14 06:49:10;;;;;;;10.18;2.30;;;24.00;99.90;;;;;;5034679;28;20050;-88
2022/05/14 06:51:37;;;;;;;5.47;1.90;;;24.10;99.90;;;;;;5037275;28;20040;-87
2022/05/14 06:54:08;;;;;;;2.63;2.10;;;24.20;99.90;;;;;;5041815;28;20383;-86
2022/05/14 06:56:40;;;;;;;1.90;1.80;;;24.30;99.90;;;;;;5017132;28;20087;-88
2022/05/14 06:59:07;;;;;;;2.00;1.80;;;24.40;99.90;;;;;;5042439;28;20644;-86
2022/05/14 07:01:35;;;;;;;4.90;2.10;;;24.40;99.90;;;;;;5036520;28;20029;-86
2022/05/14 07:06:52;;;;;;;3.17;2.05;;;24.50;99.90;;;;;;5032606;28;20740;-85
2022/05/14 07:09:26;;;;;;;6.03;2.30;;;24.50;99.90;;;;;;5032467;28;20039;-85
2022/05/14 07:11:54;;;;;;;6.80;2.03;;;24.50;99.90;;;;;;5036158;28;20025;-86
2022/05/14 07:14:20;;;;;;;2.58;1.73;;;24.60;99.90;;;;;;5042545;28;20040;-85
2022/05/14 07:16:48;;;;;;;3.58;2.03;;;24.60;99.90;;;;;;5038618;28;20035;-86
2022/05/14 07:19:14;;;;;;;15.02;2.97;;;24.80;99.90;;;;;;5033437;28;20021;-85
2022/05/14 07:21:43;;;;;;;7.28;2.40;;;25.00;99.90;;;;;;5018506;28;20391;-85
2022/05/14 07:24:29;;;;;;;2.45;2.03;;;25.10;99.90;;;;;;5034616;28;20399;-85
2022/05/14 07:26:58;;;;;;;4.35;2.22;;;25.20;99.90;;;;;;5019454;28;20082;-85
2022/05/14 07:29:25;;;;;;;3.88;2.30;;;25.20;99.90;;;;;;5035907;28;20029;-86
2022/05/14 07:31:52;;;;;;;3.83;2.25;;;25.10;99.90;;;;;;5018902;28;20458;-86
2022/05/14 07:34:19;;;;;;;3.33;1.95;;;25.00;99.90;;;;;;5032984;28;20033;-86
2022/05/14 07:37:06;;;;;;;2.13;1.90;;;25.00;99.90;;;;;;5035829;28;20330;-86
2022/05/14 07:39:36;;;;;;;2.45;1.95;;;24.90;99.90;;;;;;5025336;28;20029;-86
2022/05/14 07:42:07;;;;;;;2.55;2.15;;;24.80;99.90;;;;;;5040174;28;20025;-86
2022/05/14 07:44:37;;;;;;;2.80;2.55;;;24.90;99.90;;;;;;5037064;28;20547;-89
2022/05/14 07:47:03;;;;;;;3.80;2.03;;;24.80;99.90;;;;;;5038308;28;20021;-85
2022/05/14 07:49:29;;;;;;;3.00;1.65;;;24.90;99.90;;;;;;5027376;28;20045;-86
2022/05/14 07:51:56;;;;;;;4.35;2.00;;;24.80;99.90;;;;;;5039687;28;20025;-85
2022/05/14 07:54:23;;;;;;;3.22;2.10;;;24.80;99.90;;;;;;5037530;28;20033;-83
2022/05/14 07:56:49;;;;;;;2.50;1.60;;;24.70;99.90;;;;;;5041026;28;20025;-87
2022/05/14 07:59:15;;;;;;;5.38;2.50;;;24.70;99.90;;;;;;5041492;28;20032;-96
2022/05/14 08:01:44;;;;;;;2.15;1.95;;;24.70;99.90;;;;;;5022962;28;20108;-82
2022/05/14 08:04:13;;;;;;;2.65;2.08;;;24.70;99.90;;;;;;5033422;28;20044;-82
2022/05/14 08:06:39;;;;;;;2.80;2.60;;;24.80;99.90;;;;;;5039893;28;20583;-82
2022/05/14 08:09:06;;;;;;;7.40;1.77;;;25.00;99.90;;;;;;5040843;28;20503;-82
2022/05/14 08:11:32;;;;;;;5.35;2.67;;;25.00;99.90;;;;;;5023681;28;20495;-83
2022/05/14 08:13:59;;;;;;;3.00;2.47;;;24.80;99.90;;;;;;5037608;28;20041;-81
2022/05/14 08:16:25;;;;;;;2.90;2.53;;;24.70;99.90;;;;;;5015619;28;20021;-82
2022/05/14 08:18:54;;;;;;;2.75;2.10;;;24.70;99.90;;;;;;5018699;28;20029;-82
2022/05/14 08:26:50;;;;;;;2.97;2.67;;;24.80;99.90;;;;;;5033221;28;20039;-83
2022/05/14 08:29:17;;;;;;;3.20;2.10;;;24.90;99.90;;;;;;5016544;28;20026;-81
2022/05/14 08:31:43;;;;;;;2.45;2.25;;;24.90;99.90;;;;;;5035361;28;20111;-81
2022/05/14 08:34:09;;;;;;;3.10;2.45;;;25.10;99.90;;;;;;5019974;28;20120;-81
2022/05/14 08:36:35;;;;;;;2.20;2.03;;;25.20;99.90;;;;;;5039185;28;20422;-81
2022/05/14 08:39:01;;;;;;;2.85;2.25;;;25.40;99.90;;;;;;5018804;28;20176;-83
2022/05/14 08:41:30;;;;;;;5.80;2.17;;;25.50;99.90;;;;;;5034820;28;20041;-81
2022/05/14 08:44:00;;;;;;;3.60;2.20;;;25.50;99.90;;;;;;5019511;28;20041;-83
2022/05/14 08:46:26;;;;;;;4.50;1.73;;;25.60;99.90;;;;;;5038872;28;20681;-83
2022/05/14 08:49:18;;;;;;;2.00;1.80;;;25.70;99.90;;;;;;5038052;28;20045;-83
2022/05/14 08:51:49;;;;;;;4.73;2.33;;;25.90;99.90;;;;;;5035567;28;20033;-83
2022/05/14 08:54:15;;;;;;;3.33;2.00;;;26.00;99.90;;;;;;5017072;28;20068;-83
2022/05/14 08:57:23;;;;;;;3.28;2.33;;;26.10;99.90;;;;;;5038882;28;20044;-83
2022/05/14 08:59:55;;;;;;;2.25;1.77;;;26.20;99.90;;;;;;5005083;28;20103;-81
2022/05/14 09:02:32;;;;;;;2.67;2.15;;;26.20;99.90;;;;;;5038917;28;20464;-82
2022/05/14 09:05:00;;;;;;;8.10;2.17;;;26.30;99.90;;;;;;5025472;28;20064;-82
2022/05/14 09:07:26;;;;;;;2.50;2.03;;;26.30;99.90;;;;;;5020404;28;20036;-81
2022/05/14 09:09:55;;;;;;;5.90;2.20;;;26.40;99.90;;;;;;5043783;28;20029;-81
2022/05/14 09:12:24;;;;;;;2.20;1.80;;;26.40;99.90;;;;;;5040082;28;20064;-81
2022/05/14 09:15:06;;;;;;;2.28;2.08;;;26.40;99.90;;;;;;5043941;28;20030;-83
2022/05/14 09:17:32;;;;;;;4.30;2.20;;;26.50;99.90;;;;;;5026120;28;20025;-81
2022/05/14 09:19:59;;;;;;;4.20;2.10;;;26.70;99.90;;;;;;5022773;28;20515;-82
2022/05/14 09:22:38;;;;;;;5.47;1.92;;;26.80;99.90;;;;;;5043384;28;20112;-81
2022/05/14 09:25:04;;;;;;;3.47;2.08;;;26.90;99.90;;;;;;5029565;28;20025;-81
2022/05/14 09:27:54;;;;;;;2.53;1.90;;;27.00;99.90;;;;;;5026544;28;20024;-82
2022/05/14 09:30:51;;;;;;;2.22;1.70;;;27.10;99.90;;;;;;5040219;28;20025;-81
2022/05/14 09:33:35;;;;;;;2.33;2.13;;;27.30;99.90;;;;;;5018098;28;20047;-82
2022/05/14 09:36:01;;;;;;;2.88;1.85;;;27.50;99.90;;;;;;5045630;28;20041;-82
2022/05/14 09:38:29;;;;;;;5.28;1.80;;;27.60;99.90;;;;;;5025004;28;20079;-81
2022/05/14 09:41:07;;;;;;;6.55;1.95;;;27.70;99.90;;;;;;5039893;28;20035;-83
2022/05/14 09:43:37;;;;;;;1.98;1.60;;;27.70;99.90;;;;;;5044434;28;20484;-83
2022/05/14 09:46:06;;;;;;;2.80;1.52;;;27.80;99.90;;;;;;5043079;28;20079;-84
2022/05/14 09:48:48;;;;;;;3.88;1.60;;;27.80;99.90;;;;;;5024057;28;20041;-82
2022/05/14 09:51:31;;;;;;;1.73;1.63;;;27.90;99.90;;;;;;5042293;28;20044;-82
2022/05/14 09:54:22;;;;;;;1.98;1.88;;;27.90;99.90;;;;;;5038026;28;20034;-82
2022/05/14 09:57:16;;;;;;;5.82;2.00;;;28.00;99.90;;;;;;5040727;28;20498;-84
2022/05/14 10:00:02;;;;;;;2.28;1.80;;;28.10;99.90;;;;;;5035921;28;20024;-82
2022/05/14 10:02:51;;;;;;;3.33;1.73;;;28.30;99.90;;;;;;5025012;28;21432;-84
2022/05/14 10:05:46;;;;;;;5.00;2.03;;;28.40;99.90;;;;;;5012139;28;20037;-82
2022/05/14 10:08:37;;;;;;;3.47;1.85;;;28.50;99.90;;;;;;5041384;28;20033;-82
2022/05/14 10:11:05;;;;;;;3.20;1.80;;;28.70;99.90;;;;;;5037455;28;20037;-82
2022/05/14 10:13:51;;;;;;;4.80;2.10;;;28.80;99.90;;;;;;5038250;28;20030;-84
2022/05/14 10:16:43;;;;;;;2.40;1.73;;;29.10;99.90;;;;;;4991764;28;20041;-84
2022/05/14 10:19:40;;;;;;;2.55;1.85;;;29.10;99.90;;;;;;5039516;28;20566;-84
2022/05/14 10:26:44;;;;;;;5.53;2.05;;;29.20;99.90;;;;;;5043532;28;20488;-83
2022/05/14 10:28:36;;;;;;;15.15;4.15;;;29.10;99.90;;;;;;5038310;28;20131;-85
2022/05/14 10:31:10;;;;;;;10.82;5.05;;;29.00;99.90;;;;;;5026601;28;20052;-82
2022/05/14 10:33:39;;;;;;;14.40;10.23;;;27.80;99.90;;;;;;5038890;28;20040;-83
2022/05/14 10:36:23;;;;;;;9.00;5.30;;;26.60;99.90;;;;;;5034425;28;20021;-82
2022/05/14 10:38:56;;;;;;;15.23;10.43;;;25.70;99.90;;;;;;5040714;28;20021;-84
2022/05/14 10:41:34;;;;;;;;;;;25.20;99.90;;;;;;5025245;28;20025;-83
2022/05/14 10:44:27;;;;;;;6.68;4.65;;;25.00;99.90;;;;;;5035170;28;19909;-82
2022/05/14 10:46:54;;;;;;;9.07;6.50;;;25.00;99.90;;;;;;5040169;28;20055;-84
2022/05/14 10:49:40;;;;;;;11.25;5.47;;;24.40;99.90;;;;;;5020648;28;20045;-82
2022/05/14 10:52:15;;;;;;;6.43;4.93;;;24.10;99.90;;;;;;5043689;28;20029;-81
2022/05/14 10:54:45;;;;;;;7.63;6.38;;;24.20;99.90;;;;;;5027747;28;20373;-81
2022/05/14 10:57:13;;;;;;;8.05;5.65;;;24.20;99.90;;;;;;5042856;28;20047;-81
2022/05/14 10:59:44;;;;;;;9.70;5.85;;;24.30;99.90;;;;;;5043375;28;20026;-86
2022/05/14 11:02:26;;;;;;;14.05;6.28;;;24.20;99.90;;;;;;5042944;28;20100;-81
2022/05/14 11:04:52;;;;;;;13.35;8.82;;;24.30;99.90;;;;;;5043436;28;20074;-81
2022/05/14 11:07:42;;;;;;;11.15;6.03;;;24.20;99.90;;;;;;5040664;28;20033;-81
2022/05/14 11:10:19;;;;;;;10.40;6.43;;;24.10;99.90;;;;;;5039101;28;20091;-86
2022/05/14 11:12:47;;;;;;;11.50;5.53;;;24.30;99.90;;;;;;5037851;28;20036;-81
2022/05/14 11:15:28;;;;;;;11.55;5.97;;;24.30;99.90;;;;;;5038664;28;20033;-81
2022/05/14 11:18:11;;;;;;;9.60;5.72;;;24.30;99.90;;;;;;5014063;28;20045;-80
2022/05/14 11:20:50;;;;;;;11.00;6.95;;;24.50;99.90;;;;;;5027135;28;20037;-81
2022/05/14 11:23:16;;;;;;;9.80;6.28;;;24.50;99.90;;;;;;5037901;28;20029;-82
2022/05/14 11:25:42;;;;;;;6.13;4.75;;;24.60;99.90;;;;;;5019865;28;20400;-81
2022/05/14 11:28:12;;;;;;;10.63;5.90;;;24.60;99.90;;;;;;5042649;28;20510;-81
2022/05/14 11:30:43;;;;;;;9.13;5.72;;;24.70;99.90;;;;;;5015863;28;20098;-81
2022/05/14 11:33:27;;;;;;;6.55;4.82;;;24.80;99.90;;;;;;5036845;28;20030;-81
2022/05/14 11:35:54;;;;;;;12.88;5.32;;;24.70;99.90;;;;;;5025000;28;20049;-80
2022/05/14 11:38:23;;;;;;;8.30;5.30;;;24.80;99.90;;;;;;5017875;28;20022;-81
2022/05/14 11:41:27;;;;;;;10.93;5.40;;;24.80;99.90;;;;;;5038510;28;20108;-81
2022/05/14 11:43:53;;;;;;;10.02;5.43;;;24.70;99.90;;;;;;5020617;28;20038;-81
2022/05/14 11:46:29;;;;;;;6.65;5.25;;;24.60;99.90;;;;;;5034016;28;20026;-83
2022/05/14 11:49:02;;;;;;;10.32;5.80;;;24.50;99.90;;;;;;5019232;28;20049;-84
2022/05/14 11:51:33;;;;;;;6.20;4.97;;;24.60;99.90;;;;;;5039131;28;20030;-84
2022/05/14 11:54:04;;;;;;;10.68;5.30;;;24.80;99.90;;;;;;5039742;28;20029;-83
2022/05/14 11:56:53;;;;;;;9.70;5.00;;;24.70;99.90;;;;;;5041722;28;20055;-84
2022/05/14 11:59:53;;;;;;;6.40;5.15;;;25.10;99.90;;;;;;5036361;28;20032;-82
2022/05/14 12:02:34;;;;;;;5.13;4.38;;;26.70;99.90;;;;;;5038437;28;20377;-83
2022/05/14 12:05:04;;;;;;;10.82;5.15;;;29.20;99.90;;;;;;5036858;28;20025;-81
2022/05/14 12:07:56;;;;;;;11.70;4.95;;;30.60;99.90;;;;;;5041717;28;20117;-84
2022/05/14 12:10:38;;;;;;;7.10;4.47;;;31.20;99.90;;;;;;5037458;28;20017;-82
2022/05/14 12:13:16;;;;;;;6.85;3.80;;;31.90;99.90;;;;;;5042370;28;20083;-82
2022/05/14 12:15:55;;;;;;;7.78;4.30;;;32.90;99.90;;;;;;5028448;28;20064;-82
2022/05/14 12:18:21;;;;;;;10.23;4.20;;;32.10;99.90;;;;;;5039728;28;20075;-80
2022/05/14 12:20:59;;;;;;;7.13;3.60;;;31.80;99.90;;;;;;5039761;28;20021;-81
2022/05/14 12:23:51;;;;;;;8.30;3.58;;;31.80;99.90;;;;;;5043099;28;20017;-83
2022/05/14 12:26:25;;;;;;;6.78;3.45;;;32.60;99.90;;;;;;5019667;28;20041;-81
2022/05/14 12:28:53;;;;;;;5.28;4.07;;;31.80;99.90;;;;;;5038858;28;20494;-83
2022/05/14 12:34:16;;;;;;;6.32;5.32;;;31.40;99.90;;;;;;5043989;28;20231;-82
2022/05/14 12:36:50;;;;;;;7.90;4.40;;;32.30;99.90;;;;;;5036778;28;20052;-82
2022/05/14 12:39:19;;;;;;;7.85;4.05;;;33.00;99.90;;;;;;5044333;28;20396;-81
2022/05/14 12:41:50;;;;;;;6.75;4.38;;;33.10;99.90;;;;;;5020259;28;20361;-84
2022/05/14 12:44:20;;;;;;;8.68;4.90;;;32.90;99.90;;;;;;5043933;28;20067;-81
2022/05/14 12:46:50;;;;;;;6.80;4.70;;;33.50;99.90;;;;;;5034842;28;20120;-83
2022/05/14 12:49:28;;;;;;;4.63;3.65;;;33.90;99.90;;;;;;5035986;28;20508;-83
2022/05/14 12:52:15;;;;;;;5.45;3.20;;;34.80;99.90;;;;;;5038852;28;20045;-81
2022/05/14 12:54:55;;;;;;;5.72;3.60;;;34.80;99.90;;;;;;5043925;28;20038;-82
2022/05/14 12:57:23;;;;;;;3.97;3.50;;;34.50;99.90;;;;;;5038377;28;20033;-81
2022/05/14 12:59:49;;;;;;;4.32;3.92;;;34.50;99.90;;;;;;5044140;28;20028;-83
2022/05/14 13:02:32;;;;;;;9.02;6.88;;;33.30;99.90;;;;;;5040295;28;20021;-82
2022/05/14 13:05:04;;;;;;;7.45;4.40;;;31.60;99.90;;;;;;5042336;28;20037;-82
2022/05/14 13:07:30;;;;;;;;;;;31.20;99.90;;;;;;5041218;28;20120;-82
2022/05/14 13:09:57;;;;;;;16.73;11.95;;;30.60;99.90;;;;;;5036433;28;19909;-81
2022/05/14 13:12:29;;;;;;;12.35;7.35;;;31.00;99.90;;;;;;5042474;28;20071;-82
2022/05/14 13:15:06;;;;;;;22.15;15.60;;;32.10;99.90;;;;;;5031063;28;20037;-82
2022/05/14 13:17:38;;;;;;;24.77;18.98;;;32.60;99.90;;;;;;5036191;28;20017;-81
2022/05/14 13:20:08;;;;;;;38.85;26.38;;;31.90;99.90;;;;;;5036281;28;20071;-81
2022/05/14 13:22:42;;;;;;;32.22;23.27;;;31.80;99.90;;;;;;5040671;28;20088;-81